PWSweather.com
Personal Weather Stations
Station Observations
KMAMEDFI2
Medfield, MA 02052

Medfield, MA 02052

Lat: 42.1900822, Lon: -71.3296889

Elevation: 138

Station Type: Rainwise WS MK-III

http://www.medfieldweather.com

High Low Average
Temperature 54.5°F12.5°C 41.9°F5.5°C 48.0°F8.9°C
Dew Point 50.1°F10.1°C 36.6°F2.6°C 43.6°F6.4°C
Winds 6.9 mph 11.1 kmh Calm Calm 2.0 mph SSW3.2 kmh SSW
Wind Gusts 11.5 mph18.5 kmh -- 2.0 mph3.2 kmh
Humidity 97% 63% 85%
Pressure 30.19 in1022.4 mb 30.06 in1017.9 mb -
Precipitation 0.01 in0.3 mm - -
Hour Temp Dew Point Humidity Winds Wind Gusts Pressure Precip Precip Rate Daily Precip Total
12:00 AM 41.9°F5.5°C 36.8°F2.7°C 82% 3.5 mph SSE5.6 kmh SSE 8.1 mph13.0 kmh 30.19 in1022.4 mb - 0.00 in0.0 mm 0.00 in0.0 mm
12:10 AM 41.9°F5.5°C 36.8°F2.7°C 82% 1.2 mph S1.9 kmh S 5.8 mph9.3 kmh 30.19 in1022.4 mb - 0.00 in0.0 mm 0.00 in0.0 mm
12:20 AM 42.0°F5.6°C 36.6°F2.6°C 81% 3.5 mph SW5.6 kmh SW 5.8 mph9.3 kmh 30.19 in1022.4 mb - 0.00 in0.0 mm 0.00 in0.0 mm
12:30 AM 42.2°F5.7°C 36.8°F2.7°C 81% 3.5 mph S5.6 kmh S 5.8 mph9.3 kmh 30.18 in1022.0 mb - 0.00 in0.0 mm 0.00 in0.0 mm
12:40 AM 42.4°F5.8°C 37.0°F2.8°C 81% 3.5 mph SSW5.6 kmh SSW 2.3 mph3.7 kmh 30.18 in1022.0 mb - 0.00 in0.0 mm 0.00 in0.0 mm
12:50 AM 42.5°F5.8°C 37.1°F2.8°C 81% Calm Calm -- 30.18 in1022.0 mb - 0.00 in0.0 mm 0.00 in0.0 mm
01:00 AM 42.6°F5.9°C 37.2°F2.9°C 81% 1.2 mph SSW1.9 kmh SSW 2.3 mph3.7 kmh 30.17 in1021.7 mb - 0.00 in0.0 mm 0.00 in0.0 mm
01:10 AM 42.8°F6.0°C 37.4°F3.0°C 81% 3.5 mph S5.6 kmh S 2.3 mph3.7 kmh 30.17 in1021.7 mb - 0.00 in0.0 mm 0.00 in0.0 mm
01:20 AM 42.9°F6.1°C 37.5°F3.1°C 81% 3.5 mph S5.6 kmh S 2.3 mph3.7 kmh 30.17 in1021.7 mb - 0.00 in0.0 mm 0.00 in0.0 mm
01:30 AM 42.9°F6.1°C 37.5°F3.1°C 81% 2.3 mph SE3.7 kmh SE 2.3 mph3.7 kmh 30.16 in1021.3 mb - 0.00 in0.0 mm 0.00 in0.0 mm
01:40 AM 43.2°F6.2°C 37.5°F3.1°C 80% 3.5 mph S5.6 kmh S 2.3 mph3.7 kmh 30.15 in1021.0 mb - 0.00 in0.0 mm 0.00 in0.0 mm
01:50 AM 43.4°F6.3°C 38.0°F3.3°C 81% 2.3 mph WSW3.7 kmh WSW 2.3 mph3.7 kmh 30.15 in1021.0 mb - 0.00 in0.0 mm 0.00 in0.0 mm
02:00 AM 43.5°F6.4°C 37.8°F3.2°C 80% 1.2 mph SSW1.9 kmh SSW 3.5 mph5.6 kmh 30.15 in1021.0 mb - 0.00 in0.0 mm 0.00 in0.0 mm
02:10 AM 43.6°F6.4°C 37.9°F3.3°C 80% 2.3 mph E3.7 kmh E 2.3 mph3.7 kmh 30.15 in1021.0 mb - 0.00 in0.0 mm 0.00 in0.0 mm
02:20 AM 43.8°F6.6°C 37.7°F3.2°C 79% 1.2 mph SW1.9 kmh SW 2.3 mph3.7 kmh 30.15 in1021.0 mb - 0.00 in0.0 mm 0.00 in0.0 mm
02:30 AM 43.9°F6.6°C 37.8°F3.2°C 79% 2.3 mph WSW3.7 kmh WSW 2.3 mph3.7 kmh 30.15 in1021.0 mb - 0.00 in0.0 mm 0.00 in0.0 mm
02:40 AM 43.9°F6.6°C 37.9°F3.3°C 79% 2.3 mph S3.7 kmh S 2.3 mph3.7 kmh 30.14 in1020.7 mb - 0.00 in0.0 mm 0.00 in0.0 mm
02:50 AM 44.1°F6.7°C 38.0°F3.3°C 79% 3.5 mph SSW5.6 kmh SSW 8.1 mph13.0 kmh 30.14 in1020.7 mb - 0.00 in0.0 mm 0.00 in0.0 mm
03:00 AM 44.1°F6.7°C 38.0°F3.3°C 79% 3.5 mph S5.6 kmh S 2.3 mph3.7 kmh 30.14 in1020.7 mb - 0.00 in0.0 mm 0.00 in0.0 mm
03:10 AM 43.8°F6.6°C 38.0°F3.3°C 80% Calm Calm 1.2 mph1.9 kmh 30.13 in1020.3 mb - 0.00 in0.0 mm 0.00 in0.0 mm
03:20 AM 43.0°F6.1°C 37.8°F3.2°C 82% Calm Calm -- 30.13 in1020.3 mb - 0.00 in0.0 mm 0.00 in0.0 mm
03:30 AM 42.7°F5.9°C 38.2°F3.4°C 84% 1.2 mph SSE1.9 kmh SSE 1.2 mph1.9 kmh 30.12 in1020.0 mb - 0.00 in0.0 mm 0.00 in0.0 mm
03:40 AM 42.8°F6.0°C 38.6°F3.7°C 85% Calm Calm -- 30.12 in1020.0 mb - 0.00 in0.0 mm 0.00 in0.0 mm
03:50 AM 42.8°F6.0°C 38.6°F3.7°C 85% 2.3 mph S3.7 kmh S 2.3 mph3.7 kmh 30.11 in1019.6 mb - 0.00 in0.0 mm 0.00 in0.0 mm
04:00 AM 43.2°F6.2°C 38.7°F3.7°C 84% 2.3 mph S3.7 kmh S 2.3 mph3.7 kmh 30.12 in1020.0 mb - 0.00 in0.0 mm 0.00 in0.0 mm
04:10 AM 43.7°F6.5°C 39.2°F4.0°C 84% 2.3 mph S3.7 kmh S 2.3 mph3.7 kmh 30.12 in1020.0 mb - 0.00 in0.0 mm 0.00 in0.0 mm
04:20 AM 43.9°F6.6°C 39.1°F3.9°C 83% 3.5 mph SSE5.6 kmh SSE 2.3 mph3.7 kmh 30.12 in1020.0 mb - 0.00 in0.0 mm 0.00 in0.0 mm
04:30 AM 44.0°F6.7°C 39.5°F4.2°C 84% 2.3 mph WSW3.7 kmh WSW 5.8 mph9.3 kmh 30.11 in1019.6 mb - 0.00 in0.0 mm 0.00 in0.0 mm
04:40 AM 44.1°F6.7°C 39.3°F4.1°C 83% Calm Calm 1.2 mph1.9 kmh 30.12 in1020.0 mb - 0.00 in0.0 mm 0.00 in0.0 mm
04:50 AM 44.2°F6.8°C 39.3°F4.1°C 83% 1.2 mph SE1.9 kmh SE 2.3 mph3.7 kmh 30.12 in1020.0 mb - 0.00 in0.0 mm 0.00 in0.0 mm
05:00 AM 44.2°F6.8°C 39.7°F4.3°C 84% 2.3 mph SE3.7 kmh SE 2.3 mph3.7 kmh 30.11 in1019.6 mb - 0.00 in0.0 mm 0.00 in0.0 mm
05:10 AM 44.2°F6.8°C 39.7°F4.3°C 84% 1.2 mph SSE1.9 kmh SSE 2.3 mph3.7 kmh 30.11 in1019.6 mb - 0.00 in0.0 mm 0.00 in0.0 mm
05:20 AM 44.0°F6.7°C 39.5°F4.2°C 84% Calm Calm -- 30.11 in1019.6 mb - 0.00 in0.0 mm 0.00 in0.0 mm
05:30 AM 43.7°F6.5°C 39.4°F4.1°C 85% Calm Calm -- 30.11 in1019.6 mb - 0.00 in0.0 mm 0.00 in0.0 mm
05:40 AM 43.4°F6.3°C 39.8°F4.3°C 87% 1.2 mph SSE1.9 kmh SSE -- 30.11 in1019.6 mb - 0.00 in0.0 mm 0.00 in0.0 mm
05:50 AM 43.3°F6.3°C 39.6°F4.2°C 87% Calm Calm -- 30.11 in1019.6 mb - 0.00 in0.0 mm 0.00 in0.0 mm
06:00 AM 43.0°F6.1°C 39.7°F4.3°C 88% Calm Calm -- 30.11 in1019.6 mb - 0.00 in0.0 mm 0.00 in0.0 mm
06:10 AM 43.0°F6.1°C 39.9°F4.4°C 89% Calm Calm -- 30.11 in1019.6 mb - 0.00 in0.0 mm 0.00 in0.0 mm
06:20 AM 43.5°F6.4°C 40.2°F4.6°C 88% Calm Calm -- 30.11 in1019.6 mb - 0.00 in0.0 mm 0.00 in0.0 mm
06:30 AM 44.1°F6.7°C 40.4°F4.7°C 87% Calm Calm -- 30.11 in1019.6 mb - 0.00 in0.0 mm 0.00 in0.0 mm
06:40 AM 44.4°F6.9°C 40.5°F4.7°C 86% Calm Calm -- 30.11 in1019.6 mb - 0.00 in0.0 mm 0.00 in0.0 mm
06:50 AM 44.9°F7.2°C 40.7°F4.8°C 85% 1.2 mph E1.9 kmh E 1.2 mph1.9 kmh 30.11 in1019.6 mb - 0.00 in0.0 mm 0.00 in0.0 mm
07:00 AM 45.7°F7.6°C 40.8°F4.9°C 83% Calm Calm -- 30.10 in1019.3 mb - 0.00 in0.0 mm 0.00 in0.0 mm
07:10 AM 46.7°F8.2°C 40.2°F4.6°C 78% 3.5 mph SE5.6 kmh SE 5.8 mph9.3 kmh 30.11 in1019.6 mb - 0.00 in0.0 mm 0.00 in0.0 mm
07:20 AM 47.4°F8.6°C 40.2°F4.6°C 76% 1.2 mph SSW1.9 kmh SSW 8.1 mph13.0 kmh 30.11 in1019.6 mb - 0.00 in0.0 mm 0.00 in0.0 mm
07:30 AM 47.8°F8.8°C 39.9°F4.4°C 74% 3.5 mph SSW5.6 kmh SSW 5.8 mph9.3 kmh 30.10 in1019.3 mb - 0.00 in0.0 mm 0.00 in0.0 mm
07:40 AM 48.3°F9.1°C 39.7°F4.3°C 72% 3.5 mph S5.6 kmh S 6.9 mph11.1 kmh 30.10 in1019.3 mb - 0.00 in0.0 mm 0.00 in0.0 mm
07:50 AM 48.7°F9.3°C 40.1°F4.5°C 72% 2.3 mph S3.7 kmh S 5.8 mph9.3 kmh 30.10 in1019.3 mb - 0.00 in0.0 mm 0.00 in0.0 mm
08:00 AM 49.1°F9.5°C 40.1°F4.5°C 71% 3.5 mph S5.6 kmh S 5.8 mph9.3 kmh 30.11 in1019.6 mb - 0.00 in0.0 mm 0.00 in0.0 mm
08:10 AM 49.1°F9.5°C 40.1°F4.5°C 71% 3.5 mph SSE5.6 kmh SSE 3.5 mph5.6 kmh 30.10 in1019.3 mb - 0.00 in0.0 mm 0.00 in0.0 mm
08:20 AM 49.1°F9.5°C 40.1°F4.5°C 71% 4.6 mph SW7.4 kmh SW 8.1 mph13.0 kmh 30.10 in1019.3 mb - 0.00 in0.0 mm 0.00 in0.0 mm
08:30 AM 49.4°F9.7°C 40.8°F4.9°C 72% 4.6 mph S7.4 kmh S 6.9 mph11.1 kmh 30.10 in1019.3 mb - 0.00 in0.0 mm 0.00 in0.0 mm
08:40 AM 50.1°F10.1°C 41.1°F5.1°C 71% 2.3 mph S3.7 kmh S 2.3 mph3.7 kmh 30.11 in1019.6 mb - 0.00 in0.0 mm 0.00 in0.0 mm
08:50 AM 51.1°F10.6°C 41.3°F5.2°C 69% 4.6 mph S7.4 kmh S 8.1 mph13.0 kmh 30.11 in1019.6 mb - 0.00 in0.0 mm 0.00 in0.0 mm
09:00 AM 51.3°F10.7°C 41.1°F5.1°C 68% 3.5 mph SW5.6 kmh SW 5.8 mph9.3 kmh 30.10 in1019.3 mb - 0.00 in0.0 mm 0.00 in0.0 mm
09:10 AM 51.4°F10.8°C 41.6°F5.3°C 69% 5.8 mph S9.3 kmh S 6.9 mph11.1 kmh 30.11 in1019.6 mb - 0.00 in0.0 mm 0.00 in0.0 mm
09:20 AM 51.8°F11.0°C 41.6°F5.3°C 68% 1.2 mph SSE1.9 kmh SSE 2.3 mph3.7 kmh 30.10 in1019.3 mb - 0.00 in0.0 mm 0.00 in0.0 mm
09:30 AM 52.0°F11.1°C 41.8°F5.4°C 68% 1.2 mph S1.9 kmh S 2.3 mph3.7 kmh 30.10 in1019.3 mb - 0.00 in0.0 mm 0.00 in0.0 mm
09:40 AM 52.0°F11.1°C 41.8°F5.4°C 68% 2.3 mph SSE3.7 kmh SSE 3.5 mph5.6 kmh 30.10 in1019.3 mb - 0.00 in0.0 mm 0.00 in0.0 mm
09:50 AM 52.1°F11.2°C 42.3°F5.7°C 69% 1.2 mph SSE1.9 kmh SSE 2.3 mph3.7 kmh 30.10 in1019.3 mb - 0.00 in0.0 mm 0.00 in0.0 mm
10:00 AM 52.4°F11.3°C 42.1°F5.6°C 68% 2.3 mph S3.7 kmh S 2.3 mph3.7 kmh 30.10 in1019.3 mb - 0.00 in0.0 mm 0.00 in0.0 mm
10:10 AM 53.0°F11.7°C 42.3°F5.7°C 67% 2.3 mph SW3.7 kmh SW 3.5 mph5.6 kmh 30.10 in1019.3 mb - 0.00 in0.0 mm 0.00 in0.0 mm
10:20 AM 53.7°F12.1°C 42.6°F5.9°C 66% 1.2 mph S1.9 kmh S 2.3 mph3.7 kmh 30.10 in1019.3 mb - 0.00 in0.0 mm 0.00 in0.0 mm
10:30 AM 54.3°F12.4°C 42.0°F5.6°C 63% 4.6 mph WSW7.4 kmh WSW 8.1 mph13.0 kmh 30.11 in1019.6 mb - 0.00 in0.0 mm 0.00 in0.0 mm
10:40 AM 54.5°F12.5°C 42.2°F5.7°C 63% 2.3 mph SW3.7 kmh SW 8.1 mph13.0 kmh 30.11 in1019.6 mb - 0.00 in0.0 mm 0.00 in0.0 mm
10:50 AM 54.5°F12.5°C 42.2°F5.7°C 63% 6.9 mph WSW11.1 kmh WSW 9.2 mph14.8 kmh 30.11 in1019.6 mb - 0.00 in0.0 mm 0.00 in0.0 mm
11:00 AM 54.3°F12.4°C 42.0°F5.6°C 63% 5.8 mph WSW9.3 kmh WSW 10.4 mph16.7 kmh 30.10 in1019.3 mb - 0.00 in0.0 mm 0.00 in0.0 mm
11:10 AM 54.2°F12.3°C 42.3°F5.7°C 64% 5.8 mph SSW9.3 kmh SSW 8.1 mph13.0 kmh 30.10 in1019.3 mb - 0.00 in0.0 mm 0.00 in0.0 mm
11:20 AM 54.0°F12.2°C 42.1°F5.6°C 64% 5.8 mph SW9.3 kmh SW 11.5 mph18.5 kmh 30.10 in1019.3 mb - 0.00 in0.0 mm 0.00 in0.0 mm
11:30 AM 53.5°F11.9°C 42.4°F5.8°C 66% 3.5 mph W5.6 kmh W 8.1 mph13.0 kmh 30.10 in1019.3 mb - 0.00 in0.0 mm 0.00 in0.0 mm
11:40 AM 53.4°F11.9°C 42.7°F5.9°C 67% 2.3 mph E3.7 kmh E 2.3 mph3.7 kmh 30.10 in1019.3 mb - 0.00 in0.0 mm 0.00 in0.0 mm
11:50 AM 53.3°F11.8°C 43.0°F6.1°C 68% 6.9 mph S11.1 kmh S 10.4 mph16.7 kmh 30.10 in1019.3 mb - 0.00 in0.0 mm 0.00 in0.0 mm
12:00 PM 53.0°F11.7°C 42.7°F5.9°C 68% 5.8 mph SW9.3 kmh SW 10.4 mph16.7 kmh 30.10 in1019.3 mb - 0.00 in0.0 mm 0.00 in0.0 mm
12:10 PM 52.8°F11.6°C 42.9°F6.1°C 69% 4.6 mph WSW7.4 kmh WSW 8.1 mph13.0 kmh 30.10 in1019.3 mb - 0.00 in0.0 mm 0.00 in0.0 mm
12:20 PM 52.6°F11.4°C 43.5°F6.4°C 71% 2.3 mph SSW3.7 kmh SSW 2.3 mph3.7 kmh 30.09 in1019.0 mb - 0.00 in0.0 mm 0.00 in0.0 mm
12:30 PM 52.8°F11.6°C 43.2°F6.2°C 70% 1.2 mph SW1.9 kmh SW -- 30.09 in1019.0 mb - 0.00 in0.0 mm 0.00 in0.0 mm
12:40 PM 53.3°F11.8°C 43.8°F6.6°C 70% 2.3 mph WSW3.7 kmh WSW 2.3 mph3.7 kmh 30.09 in1019.0 mb - 0.00 in0.0 mm 0.00 in0.0 mm
12:50 PM 53.6°F12.0°C 44.1°F6.7°C 70% 2.3 mph S3.7 kmh S 2.3 mph3.7 kmh 30.09 in1019.0 mb - 0.00 in0.0 mm 0.00 in0.0 mm
01:00 PM 53.7°F12.1°C 45.3°F7.4°C 73% 2.3 mph WNW3.7 kmh WNW 2.3 mph3.7 kmh 30.09 in1019.0 mb - 0.00 in0.0 mm 0.00 in0.0 mm
01:10 PM 53.6°F12.0°C 47.3°F8.5°C 79% 1.2 mph W1.9 kmh W 2.3 mph3.7 kmh 30.09 in1019.0 mb - 0.00 in0.0 mm 0.00 in0.0 mm
01:20 PM 53.2°F11.8°C 47.9°F8.8°C 82% 3.5 mph W5.6 kmh W 6.9 mph11.1 kmh 30.09 in1019.0 mb - 0.00 in0.0 mm 0.00 in0.0 mm
01:30 PM 52.6°F11.4°C 48.8°F9.3°C 87% 1.2 mph SE1.9 kmh SE 2.3 mph3.7 kmh 30.09 in1019.0 mb - 0.00 in0.0 mm 0.00 in0.0 mm
01:40 PM 52.0°F11.1°C 49.2°F9.6°C 90% 1.2 mph S1.9 kmh S 2.3 mph3.7 kmh 30.09 in1019.0 mb - 0.00 in0.0 mm 0.00 in0.0 mm
01:50 PM 51.5°F10.8°C 48.7°F9.3°C 90% 2.3 mph S3.7 kmh S 2.3 mph3.7 kmh 30.09 in1019.0 mb - 0.00 in0.0 mm 0.00 in0.0 mm
02:00 PM 50.9°F10.5°C 48.6°F9.2°C 92% Calm Calm 2.3 mph3.7 kmh 30.08 in1018.6 mb - 0.01 in0.3 mm 0.01 in0.3 mm
02:10 PM 50.6°F10.3°C 49.3°F9.6°C 95% 2.3 mph SE3.7 kmh SE 2.3 mph3.7 kmh 30.08 in1018.6 mb - 0.01 in0.3 mm 0.01 in0.3 mm
02:20 PM 50.5°F10.3°C 49.4°F9.7°C 96% 1.2 mph SE1.9 kmh SE 2.3 mph3.7 kmh 30.07 in1018.3 mb - 0.01 in0.3 mm 0.01 in0.3 mm
02:30 PM 50.6°F10.3°C 49.8°F9.9°C 97% 3.5 mph WSW5.6 kmh WSW 2.3 mph3.7 kmh 30.07 in1018.3 mb - 0.01 in0.3 mm 0.01 in0.3 mm
02:40 PM 50.9°F10.5°C 50.1°F10.1°C 97% 2.3 mph SE3.7 kmh SE 2.3 mph3.7 kmh 30.07 in1018.3 mb - 0.01 in0.3 mm 0.01 in0.3 mm
02:50 PM 50.9°F10.5°C 50.0°F10.0°C 97% Calm Calm -- 30.07 in1018.3 mb - 0.01 in0.3 mm 0.01 in0.3 mm
03:00 PM 50.9°F10.5°C 50.1°F10.1°C 97% Calm Calm -- 30.07 in1018.3 mb - 0.00 in0.0 mm 0.01 in0.3 mm
03:10 PM 50.8°F10.4°C 50.0°F10.0°C 97% Calm Calm -- 30.07 in1018.3 mb - 0.00 in0.0 mm 0.01 in0.3 mm
03:20 PM 50.7°F10.4°C 49.9°F9.9°C 97% Calm Calm -- 30.07 in1018.3 mb - 0.00 in0.0 mm 0.01 in0.3 mm
03:30 PM 50.6°F10.3°C 49.8°F9.9°C 97% Calm Calm -- 30.08 in1018.6 mb - 0.00 in0.0 mm 0.01 in0.3 mm
03:40 PM 50.7°F10.4°C 49.8°F9.9°C 97% 1.2 mph SSW1.9 kmh SSW -- 30.08 in1018.6 mb - 0.00 in0.0 mm 0.01 in0.3 mm
03:50 PM 50.5°F10.3°C 49.6°F9.8°C 97% Calm Calm -- 30.08 in1018.6 mb - 0.00 in0.0 mm 0.01 in0.3 mm
04:00 PM 50.3°F10.2°C 49.5°F9.7°C 97% Calm Calm -- 30.07 in1018.3 mb - 0.00 in0.0 mm 0.01 in0.3 mm
04:10 PM 50.3°F10.2°C 49.5°F9.7°C 97% Calm Calm -- 30.07 in1018.3 mb - 0.00 in0.0 mm 0.01 in0.3 mm
04:20 PM 50.5°F10.3°C 49.6°F9.8°C 97% Calm Calm -- 30.07 in1018.3 mb - 0.00 in0.0 mm 0.01 in0.3 mm
04:30 PM 50.5°F10.3°C 49.6°F9.8°C 97% Calm Calm -- 30.07 in1018.3 mb - 0.00 in0.0 mm 0.01 in0.3 mm
04:40 PM 50.3°F10.2°C 49.4°F9.7°C 97% Calm Calm -- 30.07 in1018.3 mb - 0.00 in0.0 mm 0.01 in0.3 mm
04:50 PM 50.1°F10.1°C 49.2°F9.6°C 97% Calm Calm -- 30.07 in1018.3 mb - 0.00 in0.0 mm 0.01 in0.3 mm
05:00 PM 50.1°F10.1°C 49.3°F9.6°C 97% Calm Calm -- 30.07 in1018.3 mb - 0.00 in0.0 mm 0.01 in0.3 mm
05:10 PM 50.5°F10.3°C 49.6°F9.8°C 97% Calm Calm -- 30.06 in1017.9 mb - 0.00 in0.0 mm 0.01 in0.3 mm
05:20 PM 50.7°F10.4°C 49.8°F9.9°C 97% Calm Calm -- 30.07 in1018.3 mb - 0.00 in0.0 mm 0.01 in0.3 mm
05:30 PM 50.6°F10.3°C 49.7°F9.8°C 97% Calm Calm -- 30.07 in1018.3 mb - 0.00 in0.0 mm 0.01 in0.3 mm
05:40 PM 50.6°F10.3°C 49.8°F9.9°C 97% Calm Calm -- 30.08 in1018.6 mb - 0.00 in0.0 mm 0.01 in0.3 mm
05:50 PM 50.5°F10.3°C 49.7°F9.8°C 97% Calm Calm 1.2 mph1.9 kmh 30.08 in1018.6 mb - 0.00 in0.0 mm 0.01 in0.3 mm
06:00 PM 50.4°F10.2°C 49.6°F9.8°C 97% 1.2 mph SW1.9 kmh SW 1.2 mph1.9 kmh 30.09 in1019.0 mb - 0.00 in0.0 mm 0.01 in0.3 mm
06:10 PM 50.3°F10.2°C 49.5°F9.7°C 97% 2.3 mph W3.7 kmh W 2.3 mph3.7 kmh 30.09 in1019.0 mb - 0.00 in0.0 mm 0.01 in0.3 mm
06:20 PM 50.2°F10.1°C 49.3°F9.6°C 97% 2.3 mph WSW3.7 kmh WSW 2.3 mph3.7 kmh 30.10 in1019.3 mb - 0.00 in0.0 mm 0.01 in0.3 mm
06:30 PM 49.9°F9.9°C 49.1°F9.5°C 97% Calm Calm -- 30.10 in1019.3 mb - 0.00 in0.0 mm 0.01 in0.3 mm
06:40 PM 49.8°F9.9°C 49.0°F9.4°C 97% Calm Calm 2.3 mph3.7 kmh 30.11 in1019.6 mb - 0.00 in0.0 mm 0.01 in0.3 mm
06:50 PM 49.8°F9.9°C 49.0°F9.4°C 97% Calm Calm -- 30.11 in1019.6 mb - 0.00 in0.0 mm 0.01 in0.3 mm
07:00 PM 49.9°F9.9°C 49.1°F9.5°C 97% 1.2 mph SW1.9 kmh SW 2.3 mph3.7 kmh 30.11 in1019.6 mb - 0.00 in0.0 mm 0.01 in0.3 mm
07:10 PM 49.8°F9.9°C 49.0°F9.4°C 97% Calm Calm -- 30.11 in1019.6 mb - 0.00 in0.0 mm 0.01 in0.3 mm
07:20 PM 49.6°F9.8°C 48.8°F9.3°C 97% 1.2 mph SSW1.9 kmh SSW 2.3 mph3.7 kmh 30.11 in1019.6 mb - 0.00 in0.0 mm 0.01 in0.3 mm
07:30 PM 49.8°F9.9°C 49.0°F9.4°C 97% 3.5 mph WSW5.6 kmh WSW 2.3 mph3.7 kmh 30.12 in1020.0 mb - 0.00 in0.0 mm 0.01 in0.3 mm
07:40 PM 49.6°F9.8°C 48.8°F9.3°C 97% Calm Calm -- 30.12 in1020.0 mb - 0.00 in0.0 mm 0.01 in0.3 mm
07:50 PM 49.0°F9.4°C 48.2°F9.0°C 97% Calm Calm -- 30.13 in1020.3 mb - 0.00 in0.0 mm 0.01 in0.3 mm
08:00 PM 48.6°F9.2°C 47.8°F8.8°C 97% Calm Calm -- 30.13 in1020.3 mb - 0.00 in0.0 mm 0.01 in0.3 mm
08:10 PM 48.3°F9.1°C 47.5°F8.6°C 97% Calm Calm -- 30.13 in1020.3 mb - 0.00 in0.0 mm 0.01 in0.3 mm
08:20 PM 48.1°F8.9°C 47.3°F8.5°C 97% 1.2 mph SW1.9 kmh SW 1.2 mph1.9 kmh 30.13 in1020.3 mb - 0.00 in0.0 mm 0.01 in0.3 mm
08:30 PM 48.2°F9.0°C 47.4°F8.6°C 97% 2.3 mph WNW3.7 kmh WNW 2.3 mph3.7 kmh 30.14 in1020.7 mb - 0.00 in0.0 mm 0.01 in0.3 mm
08:40 PM 47.8°F8.8°C 47.0°F8.3°C 97% Calm Calm -- 30.14 in1020.7 mb - 0.00 in0.0 mm 0.01 in0.3 mm
08:50 PM 47.5°F8.6°C 46.7°F8.2°C 97% Calm Calm -- 30.14 in1020.7 mb - 0.00 in0.0 mm 0.01 in0.3 mm
09:00 PM 47.4°F8.6°C 46.6°F8.1°C 97% Calm Calm -- 30.14 in1020.7 mb - 0.00 in0.0 mm 0.01 in0.3 mm
09:10 PM 47.4°F8.6°C 46.6°F8.1°C 97% 2.3 mph WNW3.7 kmh WNW 2.3 mph3.7 kmh 30.14 in1020.7 mb - 0.00 in0.0 mm 0.01 in0.3 mm
09:20 PM 47.3°F8.5°C 46.5°F8.1°C 97% Calm Calm -- 30.13 in1020.3 mb - 0.00 in0.0 mm 0.01 in0.3 mm
09:30 PM 46.9°F8.3°C 46.1°F7.8°C 97% Calm Calm -- 30.14 in1020.7 mb - 0.00 in0.0 mm 0.01 in0.3 mm
09:40 PM 46.9°F8.3°C 46.1°F7.8°C 97% Calm Calm -- 30.14 in1020.7 mb - 0.00 in0.0 mm 0.01 in0.3 mm
09:50 PM 46.8°F8.2°C 46.0°F7.8°C 97% 1.2 mph WNW1.9 kmh WNW 2.3 mph3.7 kmh 30.15 in1021.0 mb - 0.00 in0.0 mm 0.01 in0.3 mm
10:00 PM 46.8°F8.2°C 46.0°F7.8°C 97% Calm Calm -- 30.15 in1021.0 mb - 0.00 in0.0 mm 0.01 in0.3 mm
10:10 PM 46.7°F8.2°C 45.9°F7.7°C 97% Calm Calm -- 30.15 in1021.0 mb - 0.00 in0.0 mm 0.01 in0.3 mm
10:20 PM 45.9°F7.7°C 45.1°F7.3°C 97% Calm Calm -- 30.14 in1020.7 mb - 0.00 in0.0 mm 0.01 in0.3 mm
10:30 PM 45.2°F7.3°C 44.4°F6.9°C 97% Calm Calm -- 30.14 in1020.7 mb - 0.00 in0.0 mm 0.01 in0.3 mm
10:40 PM 44.8°F7.1°C 43.7°F6.5°C 96% Calm Calm -- 30.14 in1020.7 mb - 0.00 in0.0 mm 0.01 in0.3 mm
10:50 PM 44.5°F6.9°C 43.5°F6.4°C 96% 2.3 mph WNW3.7 kmh WNW 2.3 mph3.7 kmh 30.14 in1020.7 mb - 0.00 in0.0 mm 0.01 in0.3 mm
11:00 PM 44.9°F7.2°C 43.8°F6.6°C 96% Calm Calm -- 30.15 in1021.0 mb - 0.00 in0.0 mm 0.06 in1.5 mm
11:10 PM 44.6°F7.0°C 43.5°F6.4°C 96% Calm Calm -- 30.15 in1021.0 mb - 0.00 in0.0 mm 0.06 in1.5 mm
11:20 PM 44.0°F6.7°C 42.9°F6.1°C 96% Calm Calm -- 30.15 in1021.0 mb - 0.00 in0.0 mm 0.06 in1.5 mm
11:30 PM 43.9°F6.6°C 42.8°F6.0°C 96% Calm Calm -- 30.15 in1021.0 mb - 0.00 in0.0 mm 0.06 in1.5 mm
11:40 PM 43.8°F6.6°C 42.7°F5.9°C 96% Calm Calm -- 30.15 in1021.0 mb - 0.00 in0.0 mm 0.06 in1.5 mm
11:50 PM 44.1°F6.7°C 43.0°F6.1°C 96% Calm Calm -- 30.15 in1021.0 mb - 0.00 in0.0 mm 0.06 in1.5 mm